createdAt,value
2022-09-16T00:02:26.889Z,10.24
2022-09-16T00:04:54.573Z,10.18
2022-09-16T00:07:22.112Z,10.15
2022-09-16T00:09:49.770Z,10.12
2022-09-16T00:12:18.644Z,10.10
2022-09-16T00:14:46.195Z,10.07
2022-09-16T00:17:14.046Z,10.05
2022-09-16T00:19:41.571Z,9.99
2022-09-16T00:22:09.089Z,9.99
2022-09-16T00:24:36.792Z,9.96
2022-09-16T00:27:04.692Z,9.92
2022-09-16T00:29:33.634Z,9.91
2022-09-16T00:32:01.217Z,9.90
2022-09-16T00:34:28.787Z,9.88
2022-09-16T00:36:56.324Z,9.84
2022-09-16T00:39:23.883Z,9.83
2022-09-16T00:41:51.868Z,9.86
2022-09-16T00:44:56.237Z,9.83
2022-09-16T00:47:27.708Z,9.82
2022-09-16T00:50:00.679Z,9.81
2022-09-16T00:52:30.088Z,9.76
2022-09-16T00:54:58.484Z,9.75
2022-09-16T00:57:26.426Z,9.72
2022-09-16T00:59:56.962Z,9.66
2022-09-16T01:02:25.580Z,9.63
2022-09-16T01:04:56.944Z,9.64
2022-09-16T01:07:32.301Z,9.62
2022-09-16T01:09:59.854Z,9.60
2022-09-16T01:12:30.731Z,9.58
2022-09-16T01:15:00.708Z,9.57
2022-09-16T01:17:38.325Z,9.56
2022-09-16T01:20:33.462Z,9.57
2022-09-16T01:23:12.730Z,9.55
2022-09-16T01:25:56.094Z,9.53
2022-09-16T01:28:54.318Z,9.50
2022-09-16T01:31:31.438Z,9.49
2022-09-16T01:34:13.231Z,9.48
2022-09-16T01:36:49.801Z,9.48
2022-09-16T01:39:29.069Z,9.54
2022-09-16T01:42:09.391Z,9.61
2022-09-16T01:44:45.858Z,9.74
2022-09-16T01:47:21.969Z,9.88
2022-09-16T01:50:01.958Z,9.95
2022-09-16T01:52:40.087Z,10.03
2022-09-16T01:55:10.954Z,10.05
2022-09-16T01:57:46.825Z,10.09
2022-09-16T02:00:15.515Z,10.10
2022-09-16T02:02:49.247Z,10.08
2022-09-16T02:05:21.570Z,10.06
2022-09-16T02:07:53.489Z,10.02
2022-09-16T02:10:25.981Z,9.98
2022-09-16T02:12:56.463Z,9.98
2022-09-16T02:15:27.384Z,10.01
2022-09-16T02:18:02.615Z,10.08
2022-09-16T02:20:32.812Z,10.09
2022-09-16T02:23:05.117Z,10.07
2022-09-16T02:25:35.717Z,10.08
2022-09-16T02:28:07.705Z,10.06
2022-09-16T02:30:36.690Z,10.06
2022-09-16T02:33:10.604Z,10.02
2022-09-16T02:35:40.510Z,9.99
2022-09-16T02:38:13.574Z,9.97
2022-09-16T02:40:46.939Z,9.97
2022-09-16T02:43:14.626Z,9.96
2022-09-16T02:45:50.945Z,9.93
2022-09-16T02:48:28.146Z,9.93
2022-09-16T02:51:06.674Z,9.92
2022-09-16T02:53:43.833Z,9.92
2022-09-16T02:56:19.045Z,9.92
2022-09-16T02:58:46.723Z,9.91
2022-09-16T03:01:15.226Z,9.90
2022-09-16T03:03:44.205Z,9.87
2022-09-16T03:06:17.127Z,9.88
2022-09-16T03:08:46.409Z,9.86
2022-09-16T03:11:29.396Z,9.83
2022-09-16T03:14:12.982Z,9.82
2022-09-16T03:16:52.193Z,9.81
2022-09-16T03:19:27.778Z,9.83
2022-09-16T03:22:02.828Z,9.81
2022-09-16T03:24:39.466Z,9.85
2022-09-16T03:27:12.046Z,9.85
2022-09-16T03:29:45.754Z,9.85
2022-09-16T03:32:21.393Z,9.88
2022-09-16T03:34:53.427Z,9.93
2022-09-16T03:37:23.309Z,9.93
2022-09-16T03:39:53.748Z,9.92
2022-09-16T03:42:22.495Z,9.87
2022-09-16T03:44:50.301Z,9.81
2022-09-16T03:47:18.520Z,9.74
2022-09-16T03:49:46.170Z,9.69
2022-09-16T03:52:17.257Z,9.65
2022-09-16T03:54:44.803Z,9.62
2022-09-16T03:57:12.906Z,9.61
2022-09-16T03:59:41.110Z,9.60
2022-09-16T04:02:08.691Z,9.60
2022-09-16T04:04:36.603Z,9.59
2022-09-16T04:07:04.393Z,9.61
2022-09-16T04:09:33.293Z,9.63
2022-09-16T04:12:00.830Z,9.64
2022-09-16T04:14:28.366Z,9.68
2022-09-16T04:16:56.259Z,9.74
2022-09-16T04:19:24.191Z,9.81
2022-09-16T04:21:51.759Z,9.90
2022-09-16T04:24:19.430Z,9.91
2022-09-16T04:26:48.319Z,9.99
2022-09-16T04:29:15.952Z,10.08
2022-09-16T04:31:43.909Z,10.11
2022-09-16T04:34:12.782Z,10.12
2022-09-16T04:36:40.514Z,10.09
2022-09-16T04:39:08.450Z,10.07
2022-09-16T04:41:36.357Z,10.02
2022-09-16T04:44:05.754Z,10.01
2022-09-16T04:46:34.138Z,9.98
2022-09-16T04:49:01.790Z,9.99
2022-09-16T04:51:29.957Z,10.00
2022-09-16T04:53:58.611Z,10.02
2022-09-16T04:56:27.984Z,10.04
2022-09-16T04:58:59.276Z,10.07
2022-09-16T05:01:29.871Z,10.08
2022-09-16T05:04:00.399Z,10.07
2022-09-16T05:06:29.958Z,10.07
2022-09-16T05:08:58.131Z,10.05
2022-09-16T05:11:27.757Z,10.06
2022-09-16T05:13:55.859Z,10.06
2022-09-16T05:16:24.417Z,10.10
2022-09-16T05:18:56.250Z,10.13
2022-09-16T05:21:26.959Z,10.16
2022-09-16T05:23:55.871Z,10.25
2022-09-16T05:26:25.893Z,10.33
2022-09-16T05:28:54.262Z,10.43
2022-09-16T05:31:23.993Z,10.51
2022-09-16T05:33:57.279Z,10.57
2022-09-16T05:36:25.963Z,10.64
2022-09-16T05:39:18.113Z,10.71
2022-09-16T05:41:41.409Z,10.91
2022-09-16T05:44:08.982Z,10.94
2022-09-16T05:46:37.118Z,10.97
2022-09-16T05:49:06.466Z,10.99
2022-09-16T05:51:34.006Z,11.01
2022-09-16T05:54:01.782Z,11.08
2022-09-16T05:56:31.223Z,11.12
2022-09-16T05:59:01.182Z,11.20
2022-09-16T06:01:31.032Z,11.82
2022-09-16T06:03:59.178Z,12.28
2022-09-16T06:06:29.977Z,12.49
2022-09-16T06:08:59.829Z,12.52
2022-09-16T06:11:28.920Z,12.48
2022-09-16T06:13:58.459Z,12.54
2022-09-16T06:16:27.793Z,12.61
2022-09-16T06:18:55.801Z,12.71
2022-09-16T06:21:23.982Z,12.81
2022-09-16T06:23:53.334Z,12.75
2022-09-16T06:26:23.047Z,12.77
2022-09-16T06:28:51.450Z,13.02
2022-09-16T06:31:20.520Z,13.42
2022-09-16T06:33:50.178Z,13.54
2022-09-16T06:36:19.648Z,13.86
2022-09-16T06:38:48.204Z,14.72
2022-09-16T06:41:18.498Z,15.21
2022-09-16T06:43:46.832Z,15.02
2022-09-16T06:46:17.431Z,14.88
2022-09-16T06:48:47.230Z,14.62
2022-09-16T06:51:16.722Z,13.94
2022-09-16T06:53:45.166Z,13.60
2022-09-16T06:56:14.634Z,13.09
2022-09-16T06:58:47.852Z,12.84
2022-09-16T07:01:17.653Z,12.81
2022-09-16T07:03:47.555Z,12.92
2022-09-16T07:06:16.561Z,12.98
2022-09-16T07:08:44.917Z,13.09
2022-09-16T07:11:14.222Z,13.21
2022-09-16T07:13:43.820Z,13.51
2022-09-16T07:16:14.108Z,13.85
2022-09-16T07:18:42.713Z,13.90
2022-09-16T07:21:12.322Z,14.02
2022-09-16T07:23:41.503Z,14.07
2022-09-16T07:26:11.286Z,14.29
2022-09-16T07:28:40.381Z,14.47
2022-09-16T07:31:11.400Z,14.70
2022-09-16T07:33:40.845Z,15.16
2022-09-16T07:36:09.804Z,15.66
2022-09-16T07:38:37.987Z,15.94
2022-09-16T07:41:06.818Z,15.97
2022-09-16T07:43:34.791Z,15.94
2022-09-16T07:46:02.676Z,16.14
2022-09-16T07:48:35.201Z,16.02
2022-09-16T07:51:05.359Z,15.92
2022-09-16T07:53:34.241Z,16.44
2022-09-16T07:56:03.610Z,16.60
2022-09-16T07:58:31.490Z,16.54
2022-09-16T08:01:04.022Z,16.31
2022-09-16T08:03:34.152Z,15.44
2022-09-16T08:06:03.426Z,14.20
2022-09-16T08:08:31.983Z,13.89
2022-09-16T08:11:01.252Z,13.72
2022-09-16T08:13:30.229Z,13.68
2022-09-16T08:16:01.906Z,13.59
2022-09-16T08:18:29.873Z,13.74
2022-09-16T08:21:01.246Z,13.91
2022-09-16T08:23:30.249Z,14.23
2022-09-16T08:25:58.645Z,14.76
2022-09-16T08:28:35.811Z,15.17
2022-09-16T08:31:14.096Z,15.76
2022-09-16T08:33:42.667Z,15.68
2022-09-16T08:36:15.674Z,15.63
2022-09-16T08:38:44.638Z,15.55
2022-09-16T08:41:32.878Z,15.34
2022-09-16T08:44:09.281Z,15.26
2022-09-16T08:46:45.718Z,15.33
2022-09-16T08:49:22.536Z,15.21
2022-09-16T08:51:51.614Z,15.10
2022-09-16T08:54:28.433Z,15.03
2022-09-16T08:57:00.154Z,14.76
2022-09-16T08:59:33.448Z,14.81
2022-09-16T09:02:20.807Z,14.47
2022-09-16T09:04:48.738Z,14.46
2022-09-16T09:07:28.532Z,14.37
2022-09-16T09:10:10.204Z,14.41
2022-09-16T09:12:42.364Z,14.36
2022-09-16T09:15:30.933Z,14.48
2022-09-16T09:18:10.094Z,14.90
2022-09-16T09:20:50.544Z,15.29
2022-09-16T09:23:33.175Z,15.33
2022-09-16T09:26:09.608Z,15.38
2022-09-16T09:29:09.749Z,15.49
2022-09-16T09:31:47.624Z,15.85
2022-09-16T09:34:34.907Z,16.15
2022-09-16T09:37:18.366Z,16.67
2022-09-16T09:40:02.017Z,16.62
2022-09-16T09:42:33.052Z,16.61
2022-09-16T09:45:05.024Z,16.61
2022-09-16T09:47:39.765Z,16.58
2022-09-16T09:50:16.694Z,16.99
2022-09-16T09:52:49.439Z,17.21
2022-09-16T09:55:21.722Z,17.58
2022-09-16T09:58:12.735Z,17.45
2022-09-16T10:00:40.368Z,16.60
2022-09-16T10:03:13.254Z,16.09
2022-09-16T10:05:41.309Z,15.54
2022-09-16T10:08:17.724Z,15.45
2022-09-16T10:10:51.187Z,15.50
2022-09-16T10:13:19.624Z,15.58
2022-09-16T10:15:51.925Z,15.32
2022-09-16T10:18:26.518Z,15.18
2022-09-16T10:21:01.982Z,14.98
2022-09-16T10:23:30.522Z,15.00
2022-09-16T10:26:19.515Z,15.33
2022-09-16T10:28:58.517Z,15.55
2022-09-16T10:31:33.532Z,15.59
2022-09-16T10:34:03.350Z,15.74
2022-09-16T10:36:34.892Z,15.88
2022-09-16T10:39:05.150Z,15.54
2022-09-16T10:41:42.431Z,15.28
2022-09-16T10:44:17.707Z,15.48
2022-09-16T10:46:52.809Z,15.68
2022-09-16T10:49:23.933Z,15.96
2022-09-16T10:51:51.482Z,16.33
2022-09-16T10:54:28.266Z,16.51
2022-09-16T10:56:57.162Z,16.46
2022-09-16T10:59:24.685Z,16.54
2022-09-16T11:02:02.246Z,16.76
2022-09-16T11:04:54.681Z,17.09
2022-09-16T11:07:45.883Z,16.84
2022-09-16T11:10:23.186Z,16.78
2022-09-16T11:13:25.951Z,16.98
2022-09-16T11:16:13.112Z,17.22
2022-09-16T11:18:57.103Z,17.37
2022-09-16T11:21:43.346Z,17.16
2022-09-16T11:24:41.058Z,17.04
2022-09-16T11:27:17.397Z,16.88
2022-09-16T11:30:04.721Z,16.71
2022-09-16T11:32:47.413Z,16.73
2022-09-16T11:35:32.198Z,16.91
2022-09-16T11:38:08.174Z,16.91
2022-09-16T11:40:47.634Z,17.04
2022-09-16T11:43:39.865Z,17.19
2022-09-16T11:46:17.225Z,17.26
2022-09-16T11:48:57.538Z,17.56
2022-09-16T11:51:46.990Z,17.43
2022-09-16T11:54:36.802Z,17.56
2022-09-16T11:57:10.805Z,17.49
2022-09-16T11:59:46.882Z,17.09
2022-09-16T12:02:22.931Z,16.90
2022-09-16T12:04:57.764Z,16.40
2022-09-16T12:07:31.985Z,16.46
2022-09-16T12:10:05.775Z,16.43
2022-09-16T12:12:37.582Z,16.33
2022-09-16T12:15:14.875Z,16.11
2022-09-16T12:17:51.889Z,16.06
2022-09-16T12:20:23.417Z,15.88
2022-09-16T12:22:55.942Z,15.89
2022-09-16T12:25:28.119Z,15.99
2022-09-16T12:28:03.505Z,15.90
2022-09-16T12:30:37.751Z,15.84
2022-09-16T12:33:15.368Z,15.65
2022-09-16T12:35:50.635Z,15.40
2022-09-16T12:38:20.197Z,15.10
2022-09-16T12:41:03.149Z,14.86
2022-09-16T12:43:53.015Z,14.78
2022-09-16T12:46:37.358Z,14.64
2022-09-16T12:49:30.170Z,14.69
2022-09-16T12:52:26.429Z,14.95
2022-09-16T12:55:26.290Z,15.37
2022-09-16T12:58:13.725Z,15.43
2022-09-16T13:00:51.271Z,15.66
2022-09-16T13:03:21.995Z,15.65
2022-09-16T13:05:53.198Z,15.65
2022-09-16T13:08:23.978Z,15.63
2022-09-16T13:11:25.576Z,15.61
2022-09-16T13:13:49.434Z,15.63
2022-09-16T13:16:29.662Z,15.52
2022-09-16T13:19:34.058Z,15.37
2022-09-16T13:22:15.891Z,15.27
2022-09-16T13:24:47.903Z,15.25
2022-09-16T13:27:27.454Z,15.26
2022-09-16T13:30:21.744Z,15.51
2022-09-16T13:33:00.875Z,15.77
2022-09-16T13:35:40.929Z,16.07
2022-09-16T13:38:36.166Z,16.31
2022-09-16T13:41:04.171Z,16.67
2022-09-16T13:43:37.461Z,16.71
2022-09-16T13:46:10.917Z,16.77
2022-09-16T13:48:44.265Z,16.76
2022-09-16T13:51:18.697Z,16.73
2022-09-16T13:53:49.583Z,16.55
2022-09-16T13:56:41.721Z,16.53
2022-09-16T13:59:28.397Z,16.30
2022-09-16T14:02:08.972Z,16.14
2022-09-16T14:04:54.326Z,16.24
2022-09-16T14:07:33.338Z,16.30
2022-09-16T14:10:11.019Z,16.32
2022-09-16T14:12:49.797Z,16.26
2022-09-16T14:15:18.018Z,16.19
2022-09-16T14:17:51.490Z,16.08
2022-09-16T14:20:21.969Z,16.02
2022-09-16T14:22:49.530Z,15.97
2022-09-16T14:25:30.921Z,15.96
2022-09-16T14:28:09.531Z,16.12
2022-09-16T14:30:37.203Z,16.25
2022-09-16T14:33:07.966Z,16.41
2022-09-16T14:35:35.498Z,16.43
2022-09-16T14:38:14.179Z,16.43
2022-09-16T14:40:52.153Z,16.49
2022-09-16T14:43:22.426Z,16.40
2022-09-16T14:45:52.986Z,16.50
2022-09-16T14:48:24.602Z,16.53
2022-09-16T14:50:52.353Z,16.55
2022-09-16T14:53:35.068Z,16.57
2022-09-16T14:56:05.950Z,16.38
2022-09-16T14:58:34.890Z,16.31
2022-09-16T15:01:09.026Z,16.21
2022-09-16T15:03:47.163Z,16.14
2022-09-16T15:06:18.084Z,16.06
2022-09-16T15:08:50.472Z,16.04
2022-09-16T15:11:46.576Z,16.04
2022-09-16T15:14:12.101Z,16.09
2022-09-16T15:16:45.127Z,16.17
2022-09-16T15:19:21.212Z,16.26
2022-09-16T15:21:49.686Z,16.35
2022-09-16T15:24:21.477Z,16.45
2022-09-16T15:26:50.677Z,16.44
2022-09-16T15:29:30.595Z,16.48
2022-09-16T15:32:15.849Z,16.52
2022-09-16T15:34:43.906Z,16.52
2022-09-16T15:37:30.418Z,16.56
2022-09-16T15:40:26.129Z,16.40
2022-09-16T15:43:24.563Z,16.45
2022-09-16T15:46:00.271Z,16.44
2022-09-16T15:48:33.179Z,16.49
2022-09-16T15:51:06.944Z,16.55
2022-09-16T15:53:52.931Z,16.60
2022-09-16T15:56:28.270Z,16.64
2022-09-16T15:58:59.425Z,16.57
2022-09-16T16:01:41.235Z,16.54
2022-09-16T16:04:11.849Z,16.57
2022-09-16T16:06:48.926Z,16.55
2022-09-16T16:09:39.958Z,16.58
2022-09-16T16:12:10.351Z,16.63
2022-09-16T16:14:40.757Z,16.55
2022-09-16T16:17:14.613Z,16.44
2022-09-16T16:19:42.975Z,16.37
2022-09-16T16:22:10.731Z,16.30
2022-09-16T16:24:38.843Z,16.25
2022-09-16T16:27:08.410Z,16.15
2022-09-16T16:29:36.068Z,16.15
2022-09-16T16:32:07.693Z,16.11
2022-09-16T16:34:37.316Z,16.02
2022-09-16T16:37:06.291Z,15.94
2022-09-16T16:39:34.241Z,15.87
2022-09-16T16:42:02.054Z,15.78
2022-09-16T16:44:29.738Z,15.60
2022-09-16T16:46:57.382Z,15.50
2022-09-16T16:49:26.249Z,15.44
2022-09-16T16:51:55.085Z,15.35
2022-09-16T16:54:22.974Z,15.20
2022-09-16T16:56:51.177Z,15.15
2022-09-16T16:59:19.409Z,15.09
2022-09-16T17:01:49.076Z,15.10
2022-09-16T17:04:17.083Z,15.06
2022-09-16T17:06:46.524Z,14.98
2022-09-16T17:09:16.028Z,14.98
2022-09-16T17:11:53.552Z,14.96
2022-09-16T17:14:21.904Z,14.87
2022-09-16T17:16:50.023Z,14.83
2022-09-16T17:19:18.930Z,14.79
2022-09-16T17:21:49.707Z,14.73
2022-09-16T17:24:17.829Z,14.73
2022-09-16T17:26:46.206Z,14.68
2022-09-16T17:29:16.051Z,14.65
2022-09-16T17:31:44.509Z,14.61
2022-09-16T17:34:14.314Z,14.56
2022-09-16T17:36:44.136Z,14.54
2022-09-16T17:39:14.918Z,14.45
2022-09-16T17:41:43.938Z,14.35
2022-09-16T17:44:13.058Z,14.25
2022-09-16T17:46:41.927Z,14.17
2022-09-16T17:49:13.934Z,14.13
2022-09-16T17:51:41.698Z,14.04
2022-09-16T17:54:09.987Z,14.00
2022-09-16T17:56:39.010Z,14.00
2022-09-16T17:59:06.730Z,13.96
2022-09-16T18:01:35.046Z,13.91
2022-09-16T18:04:03.747Z,13.84
2022-09-16T18:06:35.590Z,13.78
2022-09-16T18:09:04.964Z,13.75
2022-09-16T18:11:32.791Z,13.68
2022-09-16T18:14:04.958Z,13.60
2022-09-16T18:16:33.315Z,13.59
2022-09-16T18:19:02.458Z,13.55
2022-09-16T18:21:31.241Z,13.50
2022-09-16T18:24:00.833Z,13.47
2022-09-16T18:26:28.802Z,13.45
2022-09-16T18:29:13.873Z,13.39
2022-09-16T18:31:44.516Z,13.36
2022-09-16T18:34:12.837Z,13.35
2022-09-16T18:36:41.341Z,13.30
2022-09-16T18:39:12.408Z,13.25
2022-09-16T18:41:41.634Z,13.24
2022-09-16T18:44:14.984Z,13.19
2022-09-16T18:46:44.124Z,13.17
2022-09-16T18:49:13.816Z,13.14
2022-09-16T18:51:46.091Z,13.11
2022-09-16T18:54:19.335Z,13.13
2022-09-16T18:56:46.934Z,13.06
2022-09-16T18:59:21.420Z,13.04
2022-09-16T19:01:53.248Z,13.03
2022-09-16T19:04:23.012Z,12.97
2022-09-16T19:06:53.074Z,12.97
2022-09-16T19:09:23.599Z,12.97
2022-09-16T19:11:54.444Z,12.95
2022-09-16T19:14:24.601Z,12.93
2022-09-16T19:16:54.357Z,12.90
2022-09-16T19:19:22.525Z,12.87
2022-09-16T19:21:50.607Z,12.83
2022-09-16T19:24:20.050Z,12.81
2022-09-16T19:26:48.878Z,12.74
2022-09-16T19:29:17.773Z,12.71
2022-09-16T19:31:47.352Z,12.66
2022-09-16T19:34:17.698Z,12.62
2022-09-16T19:36:45.459Z,12.60
2022-09-16T19:39:13.530Z,12.57
2022-09-16T19:41:41.951Z,12.56
2022-09-16T19:44:12.759Z,12.55
2022-09-16T19:46:42.553Z,12.51
2022-09-16T19:49:14.773Z,12.49
2022-09-16T19:51:44.056Z,12.44
2022-09-16T19:54:11.899Z,12.40
2022-09-16T19:56:39.569Z,12.37
2022-09-16T19:59:07.270Z,12.33
2022-09-16T20:01:37.068Z,12.31
2022-09-16T20:04:06.595Z,12.29
2022-09-16T20:06:36.238Z,12.27
2022-09-16T20:09:06.859Z,12.28
2022-09-16T20:11:36.073Z,12.25
2022-09-16T20:14:06.258Z,12.24
2022-09-16T20:16:36.576Z,12.20
2022-09-16T20:19:05.233Z,12.19
2022-09-16T20:21:34.830Z,12.19
2022-09-16T20:24:06.195Z,12.17
2022-09-16T20:26:34.669Z,12.16
2022-09-16T20:29:03.068Z,12.18
2022-09-16T20:31:33.199Z,12.18
2022-09-16T20:34:00.839Z,12.18
2022-09-16T20:36:30.907Z,12.16
2022-09-16T20:39:00.522Z,12.15
2022-09-16T20:41:30.667Z,12.15
2022-09-16T20:43:59.024Z,12.14
2022-09-16T20:46:29.449Z,12.16
2022-09-16T20:48:58.411Z,12.13
2022-09-16T20:51:28.042Z,12.13
2022-09-16T20:53:57.853Z,12.11
2022-09-16T20:56:26.016Z,12.12
2022-09-16T20:58:55.066Z,12.11
2022-09-16T21:01:24.130Z,12.11
2022-09-16T21:03:53.306Z,12.11
2022-09-16T21:06:21.006Z,12.09
2022-09-16T21:08:48.586Z,12.08
2022-09-16T21:11:17.934Z,12.05
2022-09-16T21:13:47.894Z,12.08
2022-09-16T21:16:16.849Z,12.05
2022-09-16T21:18:44.614Z,11.98
2022-09-16T21:21:14.422Z,11.99
2022-09-16T21:23:42.400Z,11.96
2022-09-16T21:26:13.254Z,11.95
2022-09-16T21:28:41.213Z,11.94
2022-09-16T21:31:12.079Z,11.94
2022-09-16T21:33:42.794Z,11.98
2022-09-16T21:36:12.764Z,11.95
2022-09-16T21:38:41.826Z,11.97
2022-09-16T21:41:12.950Z,11.96
2022-09-16T21:43:43.338Z,11.97
2022-09-16T21:46:13.100Z,11.97
2022-09-16T21:48:43.149Z,11.96
2022-09-16T21:51:12.720Z,11.96
2022-09-16T21:53:42.812Z,11.96
2022-09-16T21:56:13.418Z,11.98
2022-09-16T21:58:41.517Z,11.98
2022-09-16T22:01:11.043Z,12.02
2022-09-16T22:03:39.191Z,12.01
2022-09-16T22:06:12.023Z,12.03
2022-09-16T22:08:40.154Z,12.06
2022-09-16T22:11:09.263Z,12.07
2022-09-16T22:13:37.666Z,12.09
2022-09-16T22:16:07.053Z,12.10
2022-09-16T22:18:36.898Z,12.11
2022-09-16T22:21:05.697Z,12.10
2022-09-16T22:23:36.887Z,12.16
2022-09-16T22:26:06.009Z,12.17
2022-09-16T22:28:33.898Z,12.21
2022-09-16T22:31:08.758Z,12.23
2022-09-16T22:33:37.288Z,12.28
2022-09-16T22:36:06.614Z,12.31
2022-09-16T22:38:35.771Z,12.32
2022-09-16T22:41:04.710Z,12.37
2022-09-16T22:43:36.063Z,12.39
2022-09-16T22:46:05.665Z,12.42
2022-09-16T22:48:33.566Z,12.44
2022-09-16T22:51:01.941Z,12.46
2022-09-16T22:53:31.106Z,12.50
2022-09-16T22:56:05.914Z,12.57
2022-09-16T22:58:33.885Z,12.59
2022-09-16T23:01:06.314Z,12.61
2022-09-16T23:03:34.850Z,12.60
2022-09-16T23:06:04.298Z,12.65
2022-09-16T23:08:32.379Z,12.68
2022-09-16T23:11:02.822Z,12.69
2022-09-16T23:13:31.082Z,12.67
2022-09-16T23:16:01.852Z,12.71
2022-09-16T23:18:30.735Z,12.69
2022-09-16T23:20:59.362Z,12.73
2022-09-16T23:23:27.403Z,12.73
2022-09-16T23:25:55.594Z,12.71
2022-09-16T23:28:24.485Z,12.70
2022-09-16T23:30:52.050Z,12.70
2022-09-16T23:33:20.091Z,12.75
2022-09-16T23:35:50.355Z,12.76
2022-09-16T23:38:18.070Z,12.75
2022-09-16T23:40:45.602Z,12.75
2022-09-16T23:43:13.134Z,12.75
2022-09-16T23:45:42.881Z,12.76
2022-09-16T23:48:10.401Z,12.72
2022-09-16T23:50:37.925Z,12.72
2022-09-16T23:53:05.491Z,12.74
2022-09-16T23:55:33.118Z,12.73
2022-09-16T23:58:00.698Z,12.75
